createdAt,value
2019-03-13T00:01:35.413Z,0.70
2019-03-13T00:04:07.168Z,0.70
2019-03-13T00:06:39.076Z,0.70
2019-03-13T00:09:12.825Z,0.70
2019-03-13T00:11:44.765Z,0.70
2019-03-13T00:14:16.437Z,0.70
2019-03-13T00:16:48.057Z,0.70
2019-03-13T00:19:19.679Z,0.70
2019-03-13T00:21:51.541Z,0.70
2019-03-13T00:24:23.074Z,0.70
2019-03-13T00:26:54.851Z,0.70
2019-03-13T00:29:26.423Z,0.70
2019-03-13T00:31:59.733Z,0.70
2019-03-13T00:34:31.373Z,0.70
2019-03-13T00:37:03.161Z,0.70
2019-03-13T00:39:34.831Z,0.60
2019-03-13T00:42:06.396Z,0.60
2019-03-13T00:44:38.201Z,0.60
2019-03-13T00:47:10.188Z,0.60
2019-03-13T00:49:41.891Z,0.60
2019-03-13T00:52:13.531Z,0.60
2019-03-13T00:54:45.331Z,0.60
2019-03-13T00:57:17.185Z,0.50
2019-03-13T00:59:48.825Z,0.50
2019-03-13T01:02:37.109Z,0.50
2019-03-13T01:05:30.161Z,0.50
2019-03-13T01:08:02.004Z,0.50
2019-03-13T01:10:33.715Z,0.50
2019-03-13T01:13:05.499Z,0.50
2019-03-13T01:15:37.132Z,0.50
2019-03-13T01:18:08.655Z,0.40
2019-03-13T01:20:40.484Z,0.40
2019-03-13T01:23:12.076Z,0.40
2019-03-13T01:25:43.709Z,0.40
2019-03-13T01:28:15.399Z,0.40
2019-03-13T01:31:02.563Z,0.40
2019-03-13T01:33:34.085Z,0.30
2019-03-13T01:36:05.617Z,0.30
2019-03-13T01:38:37.529Z,0.30
2019-03-13T01:41:09.139Z,0.30
2019-03-13T01:43:40.837Z,0.30
2019-03-13T01:46:12.457Z,0.30
2019-03-13T01:48:44.030Z,0.30
2019-03-13T01:51:15.963Z,0.30
2019-03-13T01:53:47.619Z,0.30
2019-03-13T01:56:19.395Z,0.30
2019-03-13T01:58:51.115Z,0.30
2019-03-13T02:01:23.111Z,0.30
2019-03-13T02:03:54.849Z,0.30
2019-03-13T02:06:26.529Z,0.30
2019-03-13T02:08:58.257Z,0.30
2019-03-13T02:11:29.943Z,0.30
2019-03-13T02:14:01.703Z,0.30
2019-03-13T02:16:33.383Z,0.20
2019-03-13T02:19:05.038Z,0.20
2019-03-13T02:21:36.564Z,0.20
2019-03-13T02:24:08.329Z,0.20
2019-03-13T02:26:39.713Z,0.20
2019-03-13T02:29:11.331Z,0.20
2019-03-13T02:31:42.933Z,0.20
2019-03-13T02:34:14.791Z,0.20
2019-03-13T02:36:46.496Z,0.20
2019-03-13T02:39:18.176Z,0.20
2019-03-13T02:41:49.895Z,0.20
2019-03-13T02:44:21.195Z,0.20
2019-03-13T02:46:53.012Z,0.20
2019-03-13T02:49:26.066Z,0.20
2019-03-13T02:51:57.708Z,0.20
2019-03-13T02:54:29.374Z,0.20
2019-03-13T02:57:01.018Z,0.20
2019-03-13T02:59:32.562Z,0.30
2019-03-13T03:02:23.542Z,0.30
2019-03-13T03:04:56.526Z,0.30
2019-03-13T03:07:27.462Z,0.30
2019-03-13T03:09:59.359Z,0.30
2019-03-13T03:12:30.932Z,0.30
2019-03-13T03:15:03.511Z,0.30
2019-03-13T03:17:35.123Z,0.30
2019-03-13T03:20:08.295Z,0.30
2019-03-13T03:22:39.864Z,0.20
2019-03-13T03:25:12.044Z,0.20
2019-03-13T03:27:43.788Z,0.30
2019-03-13T03:30:17.613Z,0.30
2019-03-13T03:32:49.254Z,0.40
2019-03-13T03:35:21.205Z,0.40
2019-03-13T03:37:52.951Z,0.40
2019-03-13T03:40:24.329Z,0.40
2019-03-13T03:42:55.969Z,0.30
2019-03-13T03:45:27.492Z,0.30
2019-03-13T03:48:00.452Z,0.20
2019-03-13T03:50:32.544Z,0.10
2019-03-13T03:53:04.115Z,0.10
2019-03-13T03:55:35.668Z,0.00
2019-03-13T03:58:07.314Z,0.00
2019-03-13T04:00:39.176Z,-0.10
2019-03-13T04:03:11.440Z,-0.10
2019-03-13T04:05:43.308Z,-0.10
2019-03-13T04:08:14.894Z,-0.10
2019-03-13T04:10:46.377Z,-0.10
2019-03-13T04:13:17.950Z,-0.10
2019-03-13T04:15:49.832Z,0.00
2019-03-13T04:18:21.550Z,0.10
2019-03-13T04:20:53.481Z,0.20
2019-03-13T04:23:25.408Z,0.30
2019-03-13T04:25:57.084Z,0.30
2019-03-13T04:28:28.813Z,0.40
2019-03-13T04:31:00.461Z,0.40
2019-03-13T04:33:32.392Z,0.40
2019-03-13T04:36:04.364Z,0.40
2019-03-13T04:38:35.972Z,0.50
2019-03-13T04:41:10.054Z,0.50
2019-03-13T04:43:41.946Z,0.40
2019-03-13T04:46:14.270Z,0.50
2019-03-13T04:48:45.778Z,0.50
2019-03-13T04:51:17.585Z,0.50
2019-03-13T04:53:49.593Z,0.50
2019-03-13T04:56:21.342Z,0.60
2019-03-13T04:58:54.383Z,0.60
2019-03-13T05:01:26.373Z,0.60
2019-03-13T05:04:01.295Z,0.70
2019-03-13T05:06:33.182Z,0.70
2019-03-13T05:09:10.492Z,0.80
2019-03-13T05:11:42.467Z,0.90
2019-03-13T05:14:25.799Z,1.10
2019-03-13T05:17:01.615Z,1.30
2019-03-13T05:19:33.416Z,1.40
2019-03-13T05:22:04.694Z,1.60
2019-03-13T05:24:36.348Z,1.70
2019-03-13T05:27:11.288Z,1.80
2019-03-13T05:29:43.000Z,1.80
2019-03-13T05:32:14.851Z,1.90
2019-03-13T05:34:46.934Z,1.90
2019-03-13T05:37:20.742Z,2.00
2019-03-13T05:39:52.572Z,2.00
2019-03-13T05:42:27.448Z,2.10
2019-03-13T05:44:59.274Z,2.10
2019-03-13T05:47:30.910Z,2.20
2019-03-13T05:50:02.752Z,2.30
2019-03-13T05:52:34.810Z,2.50
2019-03-13T05:55:06.693Z,2.60
2019-03-13T05:57:40.402Z,2.80
2019-03-13T06:00:14.202Z,3.00
2019-03-13T06:02:47.902Z,3.10
2019-03-13T06:05:20.392Z,3.10
2019-03-13T06:07:54.688Z,3.10
2019-03-13T06:10:26.468Z,3.00
2019-03-13T06:12:58.071Z,3.00
2019-03-13T06:15:29.858Z,2.90
2019-03-13T06:18:01.846Z,3.00
2019-03-13T06:20:33.636Z,3.00
2019-03-13T06:23:05.318Z,3.00
2019-03-13T06:25:37.109Z,3.00
2019-03-13T06:28:09.006Z,3.00
2019-03-13T06:30:40.708Z,3.10
2019-03-13T06:33:12.986Z,3.20
2019-03-13T06:35:47.046Z,3.20
2019-03-13T06:38:19.161Z,3.30
2019-03-13T06:40:51.128Z,3.40
2019-03-13T06:43:22.924Z,3.50
2019-03-13T06:45:55.008Z,3.60
2019-03-13T06:48:27.064Z,3.70
2019-03-13T06:50:58.932Z,3.80
2019-03-13T06:53:31.053Z,3.90
2019-03-13T06:56:03.043Z,4.10
2019-03-13T06:58:41.441Z,4.20
2019-03-13T07:01:24.236Z,4.40
2019-03-13T07:04:16.958Z,4.70
2019-03-13T07:07:25.356Z,5.20
2019-03-13T07:10:18.116Z,5.70
2019-03-13T07:13:13.329Z,6.00
2019-03-13T07:16:03.487Z,5.80
2019-03-13T07:18:59.065Z,5.40
2019-03-13T07:21:45.624Z,5.20
2019-03-13T07:24:41.814Z,5.00
2019-03-13T07:27:37.485Z,4.90
2019-03-13T07:30:33.704Z,4.80
2019-03-13T07:33:26.042Z,4.80
2019-03-13T07:36:12.161Z,4.80
2019-03-13T07:39:04.883Z,4.80
2019-03-13T07:41:56.312Z,4.80
2019-03-13T07:44:48.124Z,4.90
2019-03-13T07:47:50.502Z,5.00
2019-03-13T07:50:36.522Z,5.10
2019-03-13T07:53:44.702Z,5.20
2019-03-13T07:56:35.964Z,5.30
2019-03-13T07:59:35.122Z,5.50
2019-03-13T08:02:25.014Z,5.60
2019-03-13T08:05:11.799Z,5.60
2019-03-13T08:08:03.128Z,5.50
2019-03-13T08:10:58.438Z,5.50
2019-03-13T08:14:06.032Z,5.40
2019-03-13T08:16:51.492Z,5.30
2019-03-13T08:19:41.099Z,5.20
2019-03-13T08:22:36.915Z,5.10
2019-03-13T08:25:25.558Z,5.10
2019-03-13T08:28:15.956Z,5.20
2019-03-13T08:31:00.000Z,5.20
2019-03-13T08:34:10.684Z,5.30
2019-03-13T08:37:00.338Z,5.40
2019-03-13T08:39:56.799Z,5.60
2019-03-13T08:42:46.724Z,5.70
2019-03-13T08:45:43.108Z,5.80
2019-03-13T08:48:27.044Z,5.90
2019-03-13T08:51:05.215Z,5.90
2019-03-13T08:54:13.779Z,5.80
2019-03-13T08:57:15.357Z,5.80
2019-03-13T09:00:08.210Z,5.90
2019-03-13T09:02:51.592Z,6.10
2019-03-13T09:05:50.112Z,6.40
2019-03-13T09:08:44.902Z,6.60
2019-03-13T09:11:40.221Z,6.70
2019-03-13T09:14:28.556Z,6.60
2019-03-13T09:17:21.519Z,6.50
2019-03-13T09:20:04.302Z,6.40
2019-03-13T09:23:12.476Z,6.30
2019-03-13T09:26:09.008Z,6.20
2019-03-13T09:29:14.341Z,6.10
2019-03-13T09:32:06.372Z,6.00
2019-03-13T09:35:02.530Z,5.90
2019-03-13T09:38:01.674Z,5.80
2019-03-13T09:40:55.441Z,5.70
2019-03-13T09:44:03.516Z,5.70
2019-03-13T09:47:07.198Z,5.80
2019-03-13T09:49:58.527Z,6.00
2019-03-13T09:52:58.371Z,6.30
2019-03-13T09:55:47.340Z,6.50
2019-03-13T09:58:43.240Z,6.70
2019-03-13T10:01:42.536Z,7.00
2019-03-13T10:04:38.044Z,7.10
2019-03-13T10:07:36.793Z,7.30
2019-03-13T10:10:40.092Z,7.30
2019-03-13T10:13:38.979Z,7.30
2019-03-13T10:16:52.969Z,7.30
2019-03-13T10:19:48.030Z,7.20
2019-03-13T10:25:36.152Z,6.80
2019-03-13T10:28:18.606Z,6.60
2019-03-13T10:31:17.800Z,6.50
2019-03-13T10:34:29.134Z,6.40
2019-03-13T10:37:23.056Z,6.20
2019-03-13T10:40:06.476Z,6.10
2019-03-13T10:42:53.776Z,5.90
2019-03-13T10:45:44.409Z,5.70
2019-03-13T10:48:34.741Z,5.50
2019-03-13T10:51:16.986Z,5.40
2019-03-13T10:54:15.924Z,5.20
2019-03-13T10:57:06.516Z,5.10
2019-03-13T10:59:54.320Z,5.10
2019-03-13T11:02:45.246Z,5.00
2019-03-13T11:05:37.678Z,5.00
2019-03-13T11:08:29.761Z,5.10
2019-03-13T11:11:22.392Z,5.10
2019-03-13T11:14:15.570Z,5.20
2019-03-13T11:17:13.316Z,5.30
2019-03-13T11:20:10.490Z,5.30
2019-03-13T11:23:03.105Z,5.30
2019-03-13T11:25:46.768Z,5.40
2019-03-13T11:28:53.608Z,5.40
2019-03-13T11:31:37.647Z,5.50
2019-03-13T11:34:53.094Z,5.50
2019-03-13T11:37:43.942Z,5.50
2019-03-13T11:40:31.680Z,5.60
2019-03-13T11:43:30.975Z,5.60
2019-03-13T11:46:09.160Z,5.60
2019-03-13T11:48:59.568Z,5.60
2019-03-13T11:51:56.038Z,5.60
2019-03-13T11:54:51.377Z,5.60
2019-03-13T11:57:50.522Z,5.50
2019-03-13T12:00:37.418Z,5.50
2019-03-13T12:03:25.266Z,5.50
2019-03-13T12:06:16.283Z,5.50
2019-03-13T12:09:20.913Z,5.50
2019-03-13T12:12:19.169Z,5.40
2019-03-13T12:15:11.628Z,5.40
2019-03-13T12:18:13.096Z,5.30
2019-03-13T12:21:15.768Z,5.30
2019-03-13T12:24:24.172Z,5.30
2019-03-13T12:27:15.194Z,5.40
2019-03-13T12:30:06.415Z,5.40
2019-03-13T12:32:49.483Z,5.50
2019-03-13T12:35:42.590Z,5.50
2019-03-13T12:38:46.605Z,5.50
2019-03-13T12:41:38.114Z,5.60
2019-03-13T12:44:26.988Z,5.60
2019-03-13T12:47:20.412Z,5.70
2019-03-13T12:50:14.630Z,5.70
2019-03-13T12:53:18.132Z,5.70
2019-03-13T12:56:21.574Z,5.70
2019-03-13T12:59:25.654Z,5.70
2019-03-13T13:02:36.926Z,5.90
2019-03-13T13:05:29.378Z,6.10
2019-03-13T13:08:23.980Z,6.30
2019-03-13T13:11:23.544Z,6.60
2019-03-13T13:14:11.588Z,6.80
2019-03-13T13:17:16.437Z,7.00
2019-03-13T13:19:50.598Z,7.30
2019-03-13T13:22:22.758Z,7.60
2019-03-13T13:24:54.845Z,7.70
2019-03-13T13:27:26.649Z,7.70
2019-03-13T13:30:00.595Z,7.80
2019-03-13T13:32:32.606Z,7.90
2019-03-13T13:35:06.118Z,8.00
2019-03-13T13:37:38.366Z,8.10
2019-03-13T13:40:12.645Z,8.10
2019-03-13T13:42:44.712Z,8.10
2019-03-13T13:45:41.488Z,8.20
2019-03-13T13:48:13.388Z,8.10
2019-03-13T13:50:45.095Z,8.30
2019-03-13T13:53:17.229Z,8.50
2019-03-13T13:55:49.242Z,8.70
2019-03-13T13:58:21.558Z,8.60
2019-03-13T14:00:53.370Z,8.60
2019-03-13T14:03:25.642Z,8.50
2019-03-13T14:05:57.198Z,8.40
2019-03-13T14:08:28.860Z,8.20
2019-03-13T14:11:01.004Z,8.00
2019-03-13T14:13:33.359Z,7.90
2019-03-13T14:16:05.566Z,7.90
2019-03-13T14:18:38.746Z,7.90
2019-03-13T14:21:10.766Z,7.90
2019-03-13T14:23:43.061Z,8.00
2019-03-13T14:26:15.124Z,8.10
2019-03-13T14:28:47.126Z,8.20
2019-03-13T14:31:19.366Z,8.30
2019-03-13T14:33:51.620Z,8.30
2019-03-13T14:36:23.571Z,8.40
2019-03-13T14:38:55.676Z,8.60
2019-03-13T14:41:29.384Z,8.90
2019-03-13T14:44:01.612Z,9.00
2019-03-13T14:46:33.926Z,8.90
2019-03-13T14:49:09.130Z,8.90
2019-03-13T14:51:40.844Z,8.80
2019-03-13T14:54:12.739Z,8.80
2019-03-13T14:56:44.536Z,8.80
2019-03-13T14:59:18.266Z,9.00
2019-03-13T15:01:52.980Z,9.10
2019-03-13T15:04:24.607Z,9.00
2019-03-13T15:06:56.514Z,9.00
2019-03-13T15:09:28.583Z,8.90
2019-03-13T15:12:02.707Z,8.80
2019-03-13T15:14:34.704Z,8.60
2019-03-13T15:17:06.971Z,8.40
2019-03-13T15:19:38.960Z,8.20
2019-03-13T15:22:11.031Z,8.10
2019-03-13T15:24:42.851Z,8.00
2019-03-13T15:27:15.757Z,8.00
2019-03-13T15:29:51.727Z,8.10
2019-03-13T15:32:24.263Z,8.20
2019-03-13T15:34:56.128Z,8.40
2019-03-13T15:37:27.828Z,8.50
2019-03-13T15:39:59.267Z,8.60
2019-03-13T15:42:31.428Z,8.50
2019-03-13T15:45:05.063Z,8.50
2019-03-13T15:47:37.113Z,8.40
2019-03-13T15:50:09.683Z,8.20
2019-03-13T15:52:41.624Z,8.10
2019-03-13T15:55:16.013Z,8.00
2019-03-13T15:57:49.788Z,7.80
2019-03-13T16:00:22.589Z,7.70
2019-03-13T16:02:55.808Z,7.60
2019-03-13T16:05:29.842Z,7.60
2019-03-13T16:08:01.891Z,7.50
2019-03-13T16:10:34.252Z,7.40
2019-03-13T16:13:06.524Z,7.40
2019-03-13T16:15:46.206Z,7.40
2019-03-13T16:18:18.266Z,7.40
2019-03-13T16:20:50.150Z,7.40
2019-03-13T16:23:22.316Z,7.40
2019-03-13T16:25:54.092Z,7.30
2019-03-13T16:28:26.154Z,7.20
2019-03-13T16:30:57.710Z,7.10
2019-03-13T16:33:29.914Z,7.00
2019-03-13T16:36:06.243Z,6.90
2019-03-13T16:38:38.842Z,6.80
2019-03-13T16:41:10.716Z,6.70
2019-03-13T16:43:44.938Z,6.60
2019-03-13T16:46:17.464Z,6.50
2019-03-13T16:48:49.354Z,6.40
2019-03-13T16:51:21.564Z,6.40
2019-03-13T16:53:53.729Z,6.30
2019-03-13T16:56:25.960Z,6.30
2019-03-13T16:59:06.167Z,6.20
2019-03-13T17:01:33.967Z,6.20
2019-03-13T17:04:05.801Z,6.10
2019-03-13T17:06:37.546Z,6.20
2019-03-13T17:09:09.512Z,6.20
2019-03-13T17:11:44.608Z,6.30
2019-03-13T17:14:15.742Z,6.30
2019-03-13T17:16:48.018Z,6.20
2019-03-13T17:19:19.770Z,6.20
2019-03-13T17:21:53.505Z,6.10
2019-03-13T17:24:26.879Z,6.10
2019-03-13T17:26:58.846Z,6.00
2019-03-13T17:29:31.772Z,6.10
2019-03-13T17:32:03.952Z,6.10
2019-03-13T17:34:36.136Z,6.10
2019-03-13T17:37:08.740Z,6.20
2019-03-13T17:39:41.145Z,6.30
2019-03-13T17:42:12.858Z,6.30
2019-03-13T17:44:44.716Z,6.40
2019-03-13T17:47:19.285Z,6.50
2019-03-13T17:49:51.487Z,6.50
2019-03-13T17:52:23.718Z,6.50
2019-03-13T17:54:55.882Z,6.60
2019-03-13T17:57:30.210Z,6.60
2019-03-13T18:00:03.019Z,6.60
2019-03-13T18:02:35.296Z,6.60
2019-03-13T18:05:07.563Z,6.60
2019-03-13T18:07:39.954Z,6.60
2019-03-13T18:10:16.281Z,6.60
2019-03-13T18:12:49.621Z,6.60
2019-03-13T18:15:22.722Z,6.60
2019-03-13T18:17:58.771Z,6.50
2019-03-13T18:20:33.543Z,6.50
2019-03-13T18:23:05.625Z,6.40
2019-03-13T18:25:37.458Z,6.40
2019-03-13T18:28:12.490Z,6.30
2019-03-13T18:30:45.126Z,6.20
2019-03-13T18:33:16.918Z,6.10
2019-03-13T18:35:49.336Z,6.10
2019-03-13T18:38:22.883Z,6.00
2019-03-13T18:40:54.707Z,5.90
2019-03-13T18:43:26.327Z,5.90
2019-03-13T18:45:58.422Z,5.90
2019-03-13T18:48:30.619Z,5.80
2019-03-13T18:51:02.405Z,5.80
2019-03-13T18:53:34.308Z,5.80
2019-03-13T18:56:06.101Z,5.70
2019-03-13T18:58:39.382Z,5.70
2019-03-13T19:01:11.301Z,5.70
2019-03-13T19:03:43.521Z,5.60
2019-03-13T19:06:15.856Z,5.70
2019-03-13T19:08:47.789Z,5.60
2019-03-13T19:11:19.401Z,5.60
2019-03-13T19:13:52.987Z,5.50
2019-03-13T19:16:25.402Z,5.60
2019-03-13T19:18:57.140Z,5.50
2019-03-13T19:21:30.746Z,5.50
2019-03-13T19:24:02.914Z,5.50
2019-03-13T19:26:34.330Z,5.40
2019-03-13T19:29:06.037Z,5.40
2019-03-13T19:31:38.278Z,5.40
2019-03-13T19:34:11.403Z,5.30
2019-03-13T19:36:43.562Z,5.30
2019-03-13T19:39:15.722Z,5.30
2019-03-13T19:41:47.428Z,5.20
2019-03-13T19:44:19.233Z,5.10
2019-03-13T19:46:51.156Z,5.10
2019-03-13T19:49:22.974Z,5.20
2019-03-13T19:51:55.178Z,5.20
2019-03-13T19:54:27.254Z,5.30
2019-03-13T19:56:59.104Z,5.30
2019-03-13T19:59:31.096Z,5.20
2019-03-13T20:02:03.526Z,5.10
2019-03-13T20:04:46.657Z,5.10
2019-03-13T20:07:08.476Z,5.00
2019-03-13T20:09:40.234Z,5.00
2019-03-13T20:12:14.141Z,4.90
2019-03-13T20:14:45.505Z,4.90
2019-03-13T20:17:17.320Z,4.90
2019-03-13T20:19:52.177Z,4.80
2019-03-13T20:22:22.899Z,4.80
2019-03-13T20:24:54.812Z,4.80
2019-03-13T20:27:26.734Z,4.70
2019-03-13T20:30:00.580Z,4.70
2019-03-13T20:32:32.658Z,4.60
2019-03-13T20:35:08.409Z,4.60
2019-03-13T20:37:40.160Z,4.60
2019-03-13T20:40:14.601Z,4.50
2019-03-13T20:42:47.009Z,4.50
2019-03-13T20:45:22.838Z,4.40
2019-03-13T20:47:55.088Z,4.40
2019-03-13T20:50:36.582Z,4.40
2019-03-13T20:53:00.837Z,4.30
2019-03-13T20:55:32.539Z,4.30
2019-03-13T20:58:04.464Z,4.30
2019-03-13T21:00:38.165Z,4.20
2019-03-13T21:03:10.168Z,4.20
2019-03-13T21:05:45.794Z,4.20
2019-03-13T21:08:18.709Z,4.20
2019-03-13T21:10:50.747Z,4.20
2019-03-13T21:13:22.641Z,4.20
2019-03-13T21:15:54.726Z,4.20
2019-03-13T21:18:28.685Z,4.10
2019-03-13T21:21:00.809Z,4.10
2019-03-13T21:23:32.574Z,4.10
2019-03-13T21:26:04.107Z,4.00
2019-03-13T21:28:36.152Z,4.00
2019-03-13T21:31:09.716Z,3.90
2019-03-13T21:33:41.431Z,3.90
2019-03-13T21:36:14.485Z,3.90
2019-03-13T21:38:46.235Z,3.90
2019-03-13T21:41:18.369Z,3.80
2019-03-13T21:43:51.116Z,3.80
2019-03-13T21:46:26.662Z,3.80
2019-03-13T21:48:58.882Z,3.80
2019-03-13T21:51:31.106Z,3.80
2019-03-13T21:54:02.886Z,3.80
2019-03-13T21:56:34.719Z,3.70
2019-03-13T21:59:06.422Z,3.70
2019-03-13T22:01:38.225Z,3.70
2019-03-13T22:04:09.924Z,3.70
2019-03-13T22:06:41.784Z,3.60
2019-03-13T22:09:13.725Z,3.60
2019-03-13T22:11:45.474Z,3.60
2019-03-13T22:14:18.429Z,3.60
2019-03-13T22:16:48.242Z,3.60
2019-03-13T22:19:20.329Z,3.50
2019-03-13T22:21:52.040Z,3.50
2019-03-13T22:24:25.371Z,3.50
2019-03-13T22:26:56.917Z,3.40
2019-03-13T22:29:30.183Z,3.40
2019-03-13T22:32:01.979Z,3.30
2019-03-13T22:34:34.131Z,3.30
2019-03-13T22:37:07.781Z,3.30
2019-03-13T22:39:39.741Z,3.20
2019-03-13T22:42:11.515Z,3.20
2019-03-13T22:44:45.969Z,3.20
2019-03-13T22:47:17.878Z,3.20
2019-03-13T22:49:51.039Z,3.20
2019-03-13T22:52:24.875Z,3.10
2019-03-13T22:54:56.478Z,3.10
2019-03-13T22:57:29.032Z,3.10
2019-03-13T23:00:00.796Z,3.10
2019-03-13T23:02:33.627Z,3.10
2019-03-13T23:05:10.499Z,3.10
2019-03-13T23:07:44.469Z,3.10
2019-03-13T23:10:34.041Z,3.10
2019-03-13T23:13:06.287Z,3.10
2019-03-13T23:15:38.147Z,3.10
2019-03-13T23:18:12.215Z,3.10
2019-03-13T23:20:44.330Z,3.00
2019-03-13T23:23:16.420Z,3.00
2019-03-13T23:25:49.772Z,3.00
2019-03-13T23:28:24.547Z,3.00
2019-03-13T23:30:56.619Z,3.00
2019-03-13T23:33:28.707Z,2.90
2019-03-13T23:36:02.044Z,2.90
2019-03-13T23:38:34.170Z,2.90
2019-03-13T23:41:07.436Z,2.90
2019-03-13T23:43:39.409Z,2.90
2019-03-13T23:46:13.396Z,2.90
2019-03-13T23:48:45.908Z,2.90
2019-03-13T23:51:17.704Z,2.90
2019-03-13T23:53:49.671Z,3.00
2019-03-13T23:56:21.420Z,3.00
2019-03-13T23:58:53.348Z,3.00
